Terminal Aerodrome Forecast
Issued by NWS Wakefield, VA

Home | Current Version | Previous Version | Text Only | Print | Product List | Glossary On
Versions: 1 2 3 4 5 6 7 8 9 10 11 12 13 14 15 16 17 18 19 20 21 22 23 24
000
FTUS41 KAKQ 031857 AAA
TAFRIC
TAF AMD
KRIC 031857Z 0319/0418 03008KT P6SM -DZ OVC008
      TEMPO 0319/0322 4SM -RA BR OVC012
     FM040000 02006KT 4SM -RA BR OVC006
     FM040400 02008KT 2SM -DZ BR OVC004
     FM041500 03008KT 5SM BR OVC008=

USA.gov is the U.S. government's official web portal to all federal, state and local government web resources and services.